You are listening to:
KLAS ATIS - Las Vegas, Nevada, United States

KLAS 051556Z 19005KT 10SM SCT250 11/M06 A3015 RMK AO2 SLP204 T01111056

If stream doesn't start automatically press the play button
If stream stops then reload player then press play